<?xml version="1.0" encoding="UTF-8" standalone="no" ?>
<gpx xmlns="http://www.topografix.com/GPX/1/1" creator="MapSource 6.11.6" version="1.1" xmlns:xsi="http://www.w3.org/2001/XMLSchema-instance" xsi:schemaLocation="http://www.topografix.com/GPX/1/1 http://www.topografix.com/GPX/1/1/gpx.xsd">

  <metadata>
    <link href="http://www.garmin.com">
      <text>Garmin International</text>
    </link>
    <time>2009-02-17T19:50:09Z</time>
    <bounds maxlat="50.690679" maxlon="6.484254" minlat="50.655917" minlon="6.412802"/>
  </metadata>

  <trk>
    <name>RW Schmidt-Nideggen</name>
    <extensions>
      <gpxx:TrackExtension xmlns:gpxx="http://www.garmin.com/xmlschemas/GpxExtensions/v3" xmlns:xsi="http://www.w3.org/2001/XMLSchema-instance" xsi:schemaLocation="http://www.garmin.com/xmlschemas/GpxExtensions/v3 http://www.garmin.com/xmlschemas/GpxExtensions/v3/GpxExtensionsv3.xsd">
        <gpxx:DisplayColor>White</gpxx:DisplayColor>
      </gpxx:TrackExtension>
    </extensions>
    <trkseg>
      <trkpt lat="50.657023" lon="6.413098">
        <ele>441.382000</ele>
        <time>2009-02-17T20:50:23Z</time>
      </trkpt>
      <trkpt lat="50.657310" lon="6.412951">
        <ele>439.940000</ele>
        <time>2009-02-17T20:50:49Z</time>
      </trkpt>
      <trkpt lat="50.657517" lon="6.412802">
        <ele>440.421000</ele>
        <time>2009-02-17T20:51:09Z</time>
      </trkpt>
      <trkpt lat="50.658013" lon="6.412955">
        <ele>436.095000</ele>
        <time>2009-02-17T20:51:53Z</time>
      </trkpt>
      <trkpt lat="50.658340" lon="6.413126">
        <ele>431.289000</ele>
        <time>2009-02-17T20:52:23Z</time>
      </trkpt>
      <trkpt lat="50.658527" lon="6.413333">
        <ele>428.885000</ele>
        <time>2009-02-17T20:52:43Z</time>
      </trkpt>
      <trkpt lat="50.658580" lon="6.413484">
        <ele>427.443000</ele>
        <time>2009-02-17T20:52:53Z</time>
      </trkpt>
      <trkpt lat="50.658650" lon="6.413925">
        <ele>424.559000</ele>
        <time>2009-02-17T20:53:18Z</time>
      </trkpt>
      <trkpt lat="50.658858" lon="6.414057">
        <ele>423.117000</ele>
        <time>2009-02-17T20:53:38Z</time>
      </trkpt>
      <trkpt lat="50.659065" lon="6.414243">
        <ele>423.117000</ele>
        <time>2009-02-17T20:53:59Z</time>
      </trkpt>
      <trkpt lat="50.659475" lon="6.414597">
        <ele>426.001000</ele>
        <time>2009-02-17T20:54:39Z</time>
      </trkpt>
      <trkpt lat="50.660064" lon="6.415147">
        <ele>426.482000</ele>
        <time>2009-02-17T20:55:39Z</time>
      </trkpt>
      <trkpt lat="50.661176" lon="6.416336">
        <ele>422.637000</ele>
        <time>2009-02-17T20:57:37Z</time>
      </trkpt>
      <trkpt lat="50.661458" lon="6.416817">
        <ele>422.637000</ele>
        <time>2009-02-17T20:58:13Z</time>
      </trkpt>
      <trkpt lat="50.661598" lon="6.417089">
        <ele>418.792000</ele>
        <time>2009-02-17T20:58:33Z</time>
      </trkpt>
      <trkpt lat="50.662652" lon="6.419108">
        <ele>414.946000</ele>
        <time>2009-02-17T21:00:58Z</time>
      </trkpt>
      <trkpt lat="50.663369" lon="6.420439">
        <ele>406.294000</ele>
        <time>2009-02-17T21:02:35Z</time>
      </trkpt>
      <trkpt lat="50.663576" lon="6.420983">
        <ele>405.333000</ele>
        <time>2009-02-17T21:03:10Z</time>
      </trkpt>
      <trkpt lat="50.664106" lon="6.422584">
        <ele>390.913000</ele>
        <time>2009-02-17T21:04:50Z</time>
      </trkpt>
      <trkpt lat="50.664264" lon="6.423005">
        <ele>388.510000</ele>
        <time>2009-02-17T21:05:18Z</time>
      </trkpt>
      <trkpt lat="50.664348" lon="6.423011">
        <ele>387.549000</ele>
        <time>2009-02-17T21:05:25Z</time>
      </trkpt>
      <trkpt lat="50.664422" lon="6.422897">
        <ele>387.068000</ele>
        <time>2009-02-17T21:05:34Z</time>
      </trkpt>
      <trkpt lat="50.664923" lon="6.421960">
        <ele>385.145000</ele>
        <time>2009-02-17T21:06:42Z</time>
      </trkpt>
      <trkpt lat="50.665041" lon="6.421637">
        <ele>382.742000</ele>
        <time>2009-02-17T21:07:03Z</time>
      </trkpt>
      <trkpt lat="50.665124" lon="6.421049">
        <ele>378.416000</ele>
        <time>2009-02-17T21:07:36Z</time>
      </trkpt>
      <trkpt lat="50.665108" lon="6.420852">
        <ele>374.571000</ele>
        <time>2009-02-17T21:07:47Z</time>
      </trkpt>
      <trkpt lat="50.665033" lon="6.420489">
        <ele>377.455000</ele>
        <time>2009-02-17T21:08:08Z</time>
      </trkpt>
      <trkpt lat="50.665039" lon="6.420323">
        <ele>376.493000</ele>
        <time>2009-02-17T21:08:18Z</time>
      </trkpt>
      <trkpt lat="50.665109" lon="6.420228">
        <ele>378.416000</ele>
        <time>2009-02-17T21:08:26Z</time>
      </trkpt>
      <trkpt lat="50.665197" lon="6.420247">
        <ele>378.897000</ele>
        <time>2009-02-17T21:08:33Z</time>
      </trkpt>
      <trkpt lat="50.665309" lon="6.420351">
        <ele>378.416000</ele>
        <time>2009-02-17T21:08:45Z</time>
      </trkpt>
      <trkpt lat="50.665601" lon="6.420751">
        <ele>379.858000</ele>
        <time>2009-02-17T21:09:19Z</time>
      </trkpt>
      <trkpt lat="50.666138" lon="6.421206">
        <ele>381.781000</ele>
        <time>2009-02-17T21:10:12Z</time>
      </trkpt>
      <trkpt lat="50.666329" lon="6.421417">
        <ele>383.223000</ele>
        <time>2009-02-17T21:10:32Z</time>
      </trkpt>
      <trkpt lat="50.666410" lon="6.421569">
        <ele>383.703000</ele>
        <time>2009-02-17T21:10:43Z</time>
      </trkpt>
      <trkpt lat="50.666507" lon="6.422066">
        <ele>381.781000</ele>
        <time>2009-02-17T21:11:12Z</time>
      </trkpt>
      <trkpt lat="50.666541" lon="6.422219">
        <ele>378.416000</ele>
        <time>2009-02-17T21:11:21Z</time>
      </trkpt>
      <trkpt lat="50.666660" lon="6.422698">
        <ele>378.897000</ele>
        <time>2009-02-17T21:11:50Z</time>
      </trkpt>
      <trkpt lat="50.666698" lon="6.422871">
        <ele>376.013000</ele>
        <time>2009-02-17T21:12:00Z</time>
      </trkpt>
      <trkpt lat="50.667000" lon="6.424430">
        <ele>374.571000</ele>
        <time>2009-02-17T21:13:30Z</time>
      </trkpt>
      <trkpt lat="50.667110" lon="6.424752">
        <ele>376.013000</ele>
        <time>2009-02-17T21:13:51Z</time>
      </trkpt>
      <trkpt lat="50.667310" lon="6.425084">
        <ele>376.013000</ele>
        <time>2009-02-17T21:14:16Z</time>
      </trkpt>
      <trkpt lat="50.667604" lon="6.425475">
        <ele>375.052000</ele>
        <time>2009-02-17T21:14:50Z</time>
      </trkpt>
      <trkpt lat="50.667920" lon="6.425788">
        <ele>373.609000</ele>
        <time>2009-02-17T21:15:23Z</time>
      </trkpt>
      <trkpt lat="50.667961" lon="6.425922">
        <ele>373.129000</ele>
        <time>2009-02-17T21:15:31Z</time>
      </trkpt>
      <trkpt lat="50.667944" lon="6.426058">
        <ele>372.168000</ele>
        <time>2009-02-17T21:15:38Z</time>
      </trkpt>
      <trkpt lat="50.667799" lon="6.426348">
        <ele>372.648000</ele>
        <time>2009-02-17T21:15:59Z</time>
      </trkpt>
      <trkpt lat="50.667701" lon="6.426615">
        <ele>367.361000</ele>
        <time>2009-02-17T21:16:16Z</time>
      </trkpt>
      <trkpt lat="50.667661" lon="6.426780">
        <ele>369.284000</ele>
        <time>2009-02-17T21:16:26Z</time>
      </trkpt>
      <trkpt lat="50.667486" lon="6.427430">
        <ele>366.400000</ele>
        <time>2009-02-17T21:17:05Z</time>
      </trkpt>
      <trkpt lat="50.667408" lon="6.427913">
        <ele>361.593000</ele>
        <time>2009-02-17T21:17:33Z</time>
      </trkpt>
      <trkpt lat="50.667387" lon="6.428274">
        <ele>358.228000</ele>
        <time>2009-02-17T21:17:53Z</time>
      </trkpt>
      <trkpt lat="50.667414" lon="6.428650">
        <ele>355.345000</ele>
        <time>2009-02-17T21:18:14Z</time>
      </trkpt>
      <trkpt lat="50.667514" lon="6.429132">
        <ele>351.980000</ele>
        <time>2009-02-17T21:18:42Z</time>
      </trkpt>
      <trkpt lat="50.667485" lon="6.429283">
        <ele>349.577000</ele>
        <time>2009-02-17T21:18:51Z</time>
      </trkpt>
      <trkpt lat="50.667354" lon="6.429245">
        <ele>346.212000</ele>
        <time>2009-02-17T21:19:02Z</time>
      </trkpt>
      <trkpt lat="50.667188" lon="6.429046">
        <ele>345.731000</ele>
        <time>2009-02-17T21:19:21Z</time>
      </trkpt>
      <trkpt lat="50.667061" lon="6.428763">
        <ele>343.328000</ele>
        <time>2009-02-17T21:19:40Z</time>
      </trkpt>
      <trkpt lat="50.666972" lon="6.428719">
        <ele>341.886000</ele>
        <time>2009-02-17T21:19:48Z</time>
      </trkpt>
      <trkpt lat="50.666917" lon="6.428893">
        <ele>339.483000</ele>
        <time>2009-02-17T21:19:59Z</time>
      </trkpt>
      <trkpt lat="50.666870" lon="6.429250">
        <ele>333.234000</ele>
        <time>2009-02-17T21:20:19Z</time>
      </trkpt>
      <trkpt lat="50.666866" lon="6.429522">
        <ele>332.754000</ele>
        <time>2009-02-17T21:20:34Z</time>
      </trkpt>
      <trkpt lat="50.667016" lon="6.430040">
        <ele>327.466000</ele>
        <time>2009-02-17T21:21:06Z</time>
      </trkpt>
      <trkpt lat="50.666985" lon="6.430288">
        <ele>326.505000</ele>
        <time>2009-02-17T21:21:20Z</time>
      </trkpt>
      <trkpt lat="50.667036" lon="6.430508">
        <ele>325.063000</ele>
        <time>2009-02-17T21:21:33Z</time>
      </trkpt>
      <trkpt lat="50.667332" lon="6.431178">
        <ele>320.256000</ele>
        <time>2009-02-17T21:22:18Z</time>
      </trkpt>
      <trkpt lat="50.667418" lon="6.431322">
        <ele>319.776000</ele>
        <time>2009-02-17T21:22:29Z</time>
      </trkpt>
      <trkpt lat="50.667907" lon="6.431870">
        <ele>316.892000</ele>
        <time>2009-02-17T21:23:22Z</time>
      </trkpt>
      <trkpt lat="50.668131" lon="6.432359">
        <ele>314.008000</ele>
        <time>2009-02-17T21:23:55Z</time>
      </trkpt>
      <trkpt lat="50.668248" lon="6.432691">
        <ele>313.527000</ele>
        <time>2009-02-17T21:24:16Z</time>
      </trkpt>
      <trkpt lat="50.668316" lon="6.433687">
        <ele>307.759000</ele>
        <time>2009-02-17T21:25:12Z</time>
      </trkpt>
      <trkpt lat="50.667947" lon="6.435323">
        <ele>300.069000</ele>
        <time>2009-02-17T21:26:48Z</time>
      </trkpt>
      <trkpt lat="50.667930" lon="6.436225">
        <ele>295.743000</ele>
        <time>2009-02-17T21:27:38Z</time>
      </trkpt>
      <trkpt lat="50.668010" lon="6.436804">
        <ele>291.417000</ele>
        <time>2009-02-17T21:28:11Z</time>
      </trkpt>
      <trkpt lat="50.668064" lon="6.437177">
        <ele>292.859000</ele>
        <time>2009-02-17T21:28:32Z</time>
      </trkpt>
      <trkpt lat="50.668128" lon="6.437808">
        <ele>291.417000</ele>
        <time>2009-02-17T21:29:08Z</time>
      </trkpt>
      <trkpt lat="50.667985" lon="6.439258">
        <ele>288.052000</ele>
        <time>2009-02-17T21:30:29Z</time>
      </trkpt>
      <trkpt lat="50.668063" lon="6.439767">
        <ele>289.975000</ele>
        <time>2009-02-17T21:30:58Z</time>
      </trkpt>
      <trkpt lat="50.668586" lon="6.440776">
        <ele>287.571000</ele>
        <time>2009-02-17T21:32:11Z</time>
      </trkpt>
      <trkpt lat="50.669467" lon="6.441981">
        <ele>281.804000</ele>
        <time>2009-02-17T21:33:53Z</time>
      </trkpt>
      <trkpt lat="50.669685" lon="6.442169">
        <ele>281.323000</ele>
        <time>2009-02-17T21:34:14Z</time>
      </trkpt>
      <trkpt lat="50.670219" lon="6.442365">
        <ele>279.400000</ele>
        <time>2009-02-17T21:35:02Z</time>
      </trkpt>
      <trkpt lat="50.670422" lon="6.442508">
        <ele>278.920000</ele>
        <time>2009-02-17T21:35:22Z</time>
      </trkpt>
      <trkpt lat="50.671411" lon="6.443299">
        <ele>275.074000</ele>
        <time>2009-02-17T21:36:59Z</time>
      </trkpt>
      <trkpt lat="50.671644" lon="6.443486">
        <ele>275.074000</ele>
        <time>2009-02-17T21:37:22Z</time>
      </trkpt>
      <trkpt lat="50.671757" lon="6.443494">
        <ele>275.074000</ele>
        <time>2009-02-17T21:37:32Z</time>
      </trkpt>
      <trkpt lat="50.672174" lon="6.443345">
        <ele>272.671000</ele>
        <time>2009-02-17T21:38:09Z</time>
      </trkpt>
      <trkpt lat="50.672469" lon="6.443313">
        <ele>271.710000</ele>
        <time>2009-02-17T21:38:35Z</time>
      </trkpt>
      <trkpt lat="50.674287" lon="6.443706">
        <ele>260.174000</ele>
        <time>2009-02-17T21:41:16Z</time>
      </trkpt>
      <trkpt lat="50.674417" lon="6.443754">
        <ele>259.213000</ele>
        <time>2009-02-17T21:41:27Z</time>
      </trkpt>
      <trkpt lat="50.674800" lon="6.444090">
        <ele>254.887000</ele>
        <time>2009-02-17T21:42:06Z</time>
      </trkpt>
      <trkpt lat="50.675170" lon="6.444539">
        <ele>250.080000</ele>
        <time>2009-02-17T21:42:47Z</time>
      </trkpt>
      <trkpt lat="50.675377" lon="6.444842">
        <ele>247.196000</ele>
        <time>2009-02-17T21:43:11Z</time>
      </trkpt>
      <trkpt lat="50.676710" lon="6.447149">
        <ele>237.583000</ele>
        <time>2009-02-17T21:46:05Z</time>
      </trkpt>
      <trkpt lat="50.677701" lon="6.448843">
        <ele>229.892000</ele>
        <time>2009-02-17T21:48:13Z</time>
      </trkpt>
      <trkpt lat="50.678001" lon="6.450045">
        <ele>225.086000</ele>
        <time>2009-02-17T21:49:24Z</time>
      </trkpt>
      <trkpt lat="50.678211" lon="6.451444">
        <ele>223.644000</ele>
        <time>2009-02-17T21:50:44Z</time>
      </trkpt>
      <trkpt lat="50.678471" lon="6.452783">
        <ele>219.799000</ele>
        <time>2009-02-17T21:52:02Z</time>
      </trkpt>
      <trkpt lat="50.678518" lon="6.453416">
        <ele>217.876000</ele>
        <time>2009-02-17T21:52:37Z</time>
      </trkpt>
      <trkpt lat="50.678491" lon="6.453739">
        <ele>217.395000</ele>
        <time>2009-02-17T21:52:55Z</time>
      </trkpt>
      <trkpt lat="50.678729" lon="6.455482">
        <ele>209.705000</ele>
        <time>2009-02-17T21:54:34Z</time>
      </trkpt>
      <trkpt lat="50.679210" lon="6.458057">
        <ele>202.975000</ele>
        <time>2009-02-17T21:57:03Z</time>
      </trkpt>
      <trkpt lat="50.679634" lon="6.459535">
        <ele>200.092000</ele>
        <time>2009-02-17T21:58:33Z</time>
      </trkpt>
      <trkpt lat="50.679723" lon="6.460096">
        <ele>197.208000</ele>
        <time>2009-02-17T21:59:05Z</time>
      </trkpt>
      <trkpt lat="50.679886" lon="6.460579">
        <ele>194.804000</ele>
        <time>2009-02-17T21:59:35Z</time>
      </trkpt>
      <trkpt lat="50.680056" lon="6.462122">
        <ele>189.998000</ele>
        <time>2009-02-17T22:01:02Z</time>
      </trkpt>
      <trkpt lat="50.680146" lon="6.462463">
        <ele>189.036000</ele>
        <time>2009-02-17T22:01:23Z</time>
      </trkpt>
      <trkpt lat="50.680366" lon="6.462942">
        <ele>187.114000</ele>
        <time>2009-02-17T22:01:56Z</time>
      </trkpt>
      <trkpt lat="50.680482" lon="6.463273">
        <ele>186.633000</ele>
        <time>2009-02-17T22:02:17Z</time>
      </trkpt>
      <trkpt lat="50.680634" lon="6.463740">
        <ele>186.152000</ele>
        <time>2009-02-17T22:02:46Z</time>
      </trkpt>
      <trkpt lat="50.680798" lon="6.464473">
        <ele>183.749000</ele>
        <time>2009-02-17T22:03:29Z</time>
      </trkpt>
      <trkpt lat="50.681023" lon="6.465060">
        <ele>183.268000</ele>
        <time>2009-02-17T22:04:07Z</time>
      </trkpt>
      <trkpt lat="50.681772" lon="6.465421">
        <ele>184.711000</ele>
        <time>2009-02-17T22:05:15Z</time>
      </trkpt>
      <trkpt lat="50.682592" lon="6.465839">
        <ele>183.749000</ele>
        <time>2009-02-17T22:06:31Z</time>
      </trkpt>
      <trkpt lat="50.682669" lon="6.465956">
        <ele>183.749000</ele>
        <time>2009-02-17T22:06:40Z</time>
      </trkpt>
      <trkpt lat="50.682712" lon="6.466127">
        <ele>182.788000</ele>
        <time>2009-02-17T22:06:50Z</time>
      </trkpt>
      <trkpt lat="50.682922" lon="6.467604">
        <ele>178.943000</ele>
        <time>2009-02-17T22:08:14Z</time>
      </trkpt>
      <trkpt lat="50.683015" lon="6.467714">
        <ele>179.423000</ele>
        <time>2009-02-17T22:08:25Z</time>
      </trkpt>
      <trkpt lat="50.683816" lon="6.467658">
        <ele>180.865000</ele>
        <time>2009-02-17T22:09:35Z</time>
      </trkpt>
      <trkpt lat="50.684065" lon="6.467671">
        <ele>180.385000</ele>
        <time>2009-02-17T22:09:57Z</time>
      </trkpt>
      <trkpt lat="50.684411" lon="6.467758">
        <ele>180.385000</ele>
        <time>2009-02-17T22:10:27Z</time>
      </trkpt>
      <trkpt lat="50.684836" lon="6.467956">
        <ele>181.346000</ele>
        <time>2009-02-17T22:11:06Z</time>
      </trkpt>
      <trkpt lat="50.684955" lon="6.467996">
        <ele>182.788000</ele>
        <time>2009-02-17T22:11:17Z</time>
      </trkpt>
      <trkpt lat="50.685340" lon="6.468347">
        <ele>184.711000</ele>
        <time>2009-02-17T22:11:56Z</time>
      </trkpt>
      <trkpt lat="50.685494" lon="6.468578">
        <ele>184.230000</ele>
        <time>2009-02-17T22:12:14Z</time>
      </trkpt>
      <trkpt lat="50.685727" lon="6.469268">
        <ele>183.268000</ele>
        <time>2009-02-17T22:12:58Z</time>
      </trkpt>
      <trkpt lat="50.685768" lon="6.469442">
        <ele>182.307000</ele>
        <time>2009-02-17T22:13:08Z</time>
      </trkpt>
      <trkpt lat="50.685547" lon="6.469483">
        <ele>178.462000</ele>
        <time>2009-02-17T22:13:27Z</time>
      </trkpt>
      <trkpt lat="50.685347" lon="6.469628">
        <ele>177.981000</ele>
        <time>2009-02-17T22:13:47Z</time>
      </trkpt>
      <trkpt lat="50.685163" lon="6.469844">
        <ele>176.059000</ele>
        <time>2009-02-17T22:14:07Z</time>
      </trkpt>
      <trkpt lat="50.684929" lon="6.470434">
        <ele>173.655000</ele>
        <time>2009-02-17T22:14:45Z</time>
      </trkpt>
      <trkpt lat="50.684788" lon="6.470846">
        <ele>169.329000</ele>
        <time>2009-02-17T22:15:11Z</time>
      </trkpt>
      <trkpt lat="50.684756" lon="6.470998">
        <ele>169.810000</ele>
        <time>2009-02-17T22:15:20Z</time>
      </trkpt>
      <trkpt lat="50.684802" lon="6.471178">
        <ele>170.291000</ele>
        <time>2009-02-17T22:15:31Z</time>
      </trkpt>
      <trkpt lat="50.684993" lon="6.471240">
        <ele>168.368000</ele>
        <time>2009-02-17T22:15:48Z</time>
      </trkpt>
      <trkpt lat="50.685285" lon="6.471289">
        <ele>166.926000</ele>
        <time>2009-02-17T22:16:14Z</time>
      </trkpt>
      <trkpt lat="50.685578" lon="6.471433">
        <ele>166.926000</ele>
        <time>2009-02-17T22:16:41Z</time>
      </trkpt>
      <trkpt lat="50.686852" lon="6.471391">
        <ele>177.501000</ele>
        <time>2009-02-17T22:18:32Z</time>
      </trkpt>
      <trkpt lat="50.687193" lon="6.471303">
        <ele>175.097000</ele>
        <time>2009-02-17T22:19:02Z</time>
      </trkpt>
      <trkpt lat="50.687637" lon="6.471055">
        <ele>173.175000</ele>
        <time>2009-02-17T22:19:44Z</time>
      </trkpt>
      <trkpt lat="50.688111" lon="6.470629">
        <ele>171.733000</ele>
        <time>2009-02-17T22:20:31Z</time>
      </trkpt>
      <trkpt lat="50.688202" lon="6.470604">
        <ele>170.771000</ele>
        <time>2009-02-17T22:20:40Z</time>
      </trkpt>
      <trkpt lat="50.688421" lon="6.470668">
        <ele>172.213000</ele>
        <time>2009-02-17T22:20:59Z</time>
      </trkpt>
      <trkpt lat="50.688527" lon="6.470656">
        <ele>172.213000</ele>
        <time>2009-02-17T22:21:08Z</time>
      </trkpt>
      <trkpt lat="50.688735" lon="6.470540">
        <ele>170.291000</ele>
        <time>2009-02-17T22:21:28Z</time>
      </trkpt>
      <trkpt lat="50.688938" lon="6.470366">
        <ele>168.849000</ele>
        <time>2009-02-17T22:21:48Z</time>
      </trkpt>
      <trkpt lat="50.689188" lon="6.470017">
        <ele>168.849000</ele>
        <time>2009-02-17T22:22:17Z</time>
      </trkpt>
      <trkpt lat="50.689433" lon="6.470078">
        <ele>166.445000</ele>
        <time>2009-02-17T22:22:39Z</time>
      </trkpt>
      <trkpt lat="50.689636" lon="6.470050">
        <ele>165.484000</ele>
        <time>2009-02-17T22:22:57Z</time>
      </trkpt>
      <trkpt lat="50.689939" lon="6.469812">
        <ele>167.407000</ele>
        <time>2009-02-17T22:23:26Z</time>
      </trkpt>
      <trkpt lat="50.690125" lon="6.469948">
        <ele>170.291000</ele>
        <time>2009-02-17T22:23:44Z</time>
      </trkpt>
      <trkpt lat="50.690518" lon="6.470763">
        <ele>174.136000</ele>
        <time>2009-02-17T22:24:41Z</time>
      </trkpt>
      <trkpt lat="50.690494" lon="6.470875">
        <ele>173.175000</ele>
        <time>2009-02-17T22:24:48Z</time>
      </trkpt>
      <trkpt lat="50.690679" lon="6.471482">
        <ele>183.268000</ele>
        <time>2009-02-17T22:25:25Z</time>
      </trkpt>
      <trkpt lat="50.690634" lon="6.471621">
        <ele>185.191000</ele>
        <time>2009-02-17T22:25:34Z</time>
      </trkpt>
      <trkpt lat="50.690605" lon="6.471482">
        <ele>188.075000</ele>
        <time>2009-02-17T22:25:42Z</time>
      </trkpt>
      <trkpt lat="50.690515" lon="6.471368">
        <ele>190.959000</ele>
        <time>2009-02-17T22:25:52Z</time>
      </trkpt>
      <trkpt lat="50.690354" lon="6.471273">
        <ele>193.362000</ele>
        <time>2009-02-17T22:26:07Z</time>
      </trkpt>
      <trkpt lat="50.690195" lon="6.471267">
        <ele>196.246000</ele>
        <time>2009-02-17T22:26:21Z</time>
      </trkpt>
      <trkpt lat="50.690078" lon="6.471327">
        <ele>198.169000</ele>
        <time>2009-02-17T22:26:32Z</time>
      </trkpt>
      <trkpt lat="50.689993" lon="6.471851">
        <ele>205.859000</ele>
        <time>2009-02-17T22:27:02Z</time>
      </trkpt>
      <trkpt lat="50.690001" lon="6.471987">
        <ele>212.589000</ele>
        <time>2009-02-17T22:27:09Z</time>
      </trkpt>
      <trkpt lat="50.690098" lon="6.471949">
        <ele>215.473000</ele>
        <time>2009-02-17T22:27:18Z</time>
      </trkpt>
      <trkpt lat="50.690228" lon="6.472081">
        <ele>217.395000</ele>
        <time>2009-02-17T22:27:31Z</time>
      </trkpt>
      <trkpt lat="50.690195" lon="6.472414">
        <ele>222.202000</ele>
        <time>2009-02-17T22:27:50Z</time>
      </trkpt>
      <trkpt lat="50.690145" lon="6.472592">
        <ele>224.605000</ele>
        <time>2009-02-17T22:28:01Z</time>
      </trkpt>
      <trkpt lat="50.690089" lon="6.472667">
        <ele>228.931000</ele>
        <time>2009-02-17T22:28:07Z</time>
      </trkpt>
      <trkpt lat="50.689946" lon="6.472532">
        <ele>231.334000</ele>
        <time>2009-02-17T22:28:22Z</time>
      </trkpt>
      <trkpt lat="50.689593" lon="6.473070">
        <ele>241.428000</ele>
        <time>2009-02-17T22:29:05Z</time>
      </trkpt>
      <trkpt lat="50.689289" lon="6.473638">
        <ele>250.080000</ele>
        <time>2009-02-17T22:29:46Z</time>
      </trkpt>
      <trkpt lat="50.689164" lon="6.474086">
        <ele>254.406000</ele>
        <time>2009-02-17T22:30:13Z</time>
      </trkpt>
      <trkpt lat="50.689044" lon="6.474394">
        <ele>261.135000</ele>
        <time>2009-02-17T22:30:33Z</time>
      </trkpt>
      <trkpt lat="50.689148" lon="6.474360">
        <ele>266.422000</ele>
        <time>2009-02-17T22:30:43Z</time>
      </trkpt>
      <trkpt lat="50.689268" lon="6.474217">
        <ele>269.306000</ele>
        <time>2009-02-17T22:30:56Z</time>
      </trkpt>
      <trkpt lat="50.689425" lon="6.473937">
        <ele>272.671000</ele>
        <time>2009-02-17T22:31:17Z</time>
      </trkpt>
      <trkpt lat="50.689510" lon="6.473835">
        <ele>273.152000</ele>
        <time>2009-02-17T22:31:26Z</time>
      </trkpt>
      <trkpt lat="50.689752" lon="6.474689">
        <ele>279.881000</ele>
        <time>2009-02-17T22:32:18Z</time>
      </trkpt>
      <trkpt lat="50.689845" lon="6.474809">
        <ele>280.842000</ele>
        <time>2009-02-17T22:32:28Z</time>
      </trkpt>
      <trkpt lat="50.689820" lon="6.474996">
        <ele>286.129000</ele>
        <time>2009-02-17T22:32:39Z</time>
      </trkpt>
      <trkpt lat="50.689645" lon="6.475065">
        <ele>291.897000</ele>
        <time>2009-02-17T22:32:55Z</time>
      </trkpt>
      <trkpt lat="50.689422" lon="6.474402">
        <ele>295.743000</ele>
        <time>2009-02-17T22:33:36Z</time>
      </trkpt>
      <trkpt lat="50.689370" lon="6.474491">
        <ele>300.069000</ele>
        <time>2009-02-17T22:33:43Z</time>
      </trkpt>
      <trkpt lat="50.689360" lon="6.474830">
        <ele>300.549000</ele>
        <time>2009-02-17T22:34:02Z</time>
      </trkpt>
      <trkpt lat="50.689231" lon="6.475218">
        <ele>305.356000</ele>
        <time>2009-02-17T22:34:26Z</time>
      </trkpt>
      <trkpt lat="50.689242" lon="6.475495">
        <ele>306.798000</ele>
        <time>2009-02-17T22:34:42Z</time>
      </trkpt>
      <trkpt lat="50.689106" lon="6.475682">
        <ele>313.527000</ele>
        <time>2009-02-17T22:34:57Z</time>
      </trkpt>
      <trkpt lat="50.688895" lon="6.475557">
        <ele>313.527000</ele>
        <time>2009-02-17T22:35:17Z</time>
      </trkpt>
      <trkpt lat="50.688637" lon="6.475476">
        <ele>308.240000</ele>
        <time>2009-02-17T22:35:40Z</time>
      </trkpt>
      <trkpt lat="50.688557" lon="6.475436">
        <ele>308.720000</ele>
        <time>2009-02-17T22:35:47Z</time>
      </trkpt>
      <trkpt lat="50.688467" lon="6.475516">
        <ele>306.317000</ele>
        <time>2009-02-17T22:35:57Z</time>
      </trkpt>
      <trkpt lat="50.688402" lon="6.475616">
        <ele>305.356000</ele>
        <time>2009-02-17T22:36:04Z</time>
      </trkpt>
      <trkpt lat="50.688346" lon="6.475744">
        <ele>305.356000</ele>
        <time>2009-02-17T22:36:13Z</time>
      </trkpt>
      <trkpt lat="50.688347" lon="6.475903">
        <ele>305.356000</ele>
        <time>2009-02-17T22:36:22Z</time>
      </trkpt>
      <trkpt lat="50.688081" lon="6.476515">
        <ele>301.511000</ele>
        <time>2009-02-17T22:37:03Z</time>
      </trkpt>
      <trkpt lat="50.688152" lon="6.476828">
        <ele>297.665000</ele>
        <time>2009-02-17T22:37:22Z</time>
      </trkpt>
      <trkpt lat="50.688087" lon="6.477131">
        <ele>296.224000</ele>
        <time>2009-02-17T22:37:39Z</time>
      </trkpt>
      <trkpt lat="50.688130" lon="6.477656">
        <ele>298.146000</ele>
        <time>2009-02-17T22:38:09Z</time>
      </trkpt>
      <trkpt lat="50.688005" lon="6.478122">
        <ele>297.665000</ele>
        <time>2009-02-17T22:38:37Z</time>
      </trkpt>
      <trkpt lat="50.687971" lon="6.478351">
        <ele>298.627000</ele>
        <time>2009-02-17T22:38:50Z</time>
      </trkpt>
      <trkpt lat="50.688002" lon="6.478522">
        <ele>299.588000</ele>
        <time>2009-02-17T22:39:00Z</time>
      </trkpt>
      <trkpt lat="50.688186" lon="6.478742">
        <ele>304.875000</ele>
        <time>2009-02-17T22:39:20Z</time>
      </trkpt>
      <trkpt lat="50.688147" lon="6.478668">
        <ele>306.798000</ele>
        <time>2009-02-17T22:39:25Z</time>
      </trkpt>
      <trkpt lat="50.688225" lon="6.478238">
        <ele>312.085000</ele>
        <time>2009-02-17T22:39:50Z</time>
      </trkpt>
      <trkpt lat="50.688357" lon="6.478496">
        <ele>314.008000</ele>
        <time>2009-02-17T22:40:08Z</time>
      </trkpt>
      <trkpt lat="50.688463" lon="6.478606">
        <ele>314.969000</ele>
        <time>2009-02-17T22:40:19Z</time>
      </trkpt>
      <trkpt lat="50.688564" lon="6.478649">
        <ele>316.411000</ele>
        <time>2009-02-17T22:40:29Z</time>
      </trkpt>
      <trkpt lat="50.688638" lon="6.478560">
        <ele>318.814000</ele>
        <time>2009-02-17T22:40:37Z</time>
      </trkpt>
      <trkpt lat="50.688742" lon="6.478578">
        <ele>319.295000</ele>
        <time>2009-02-17T22:40:46Z</time>
      </trkpt>
      <trkpt lat="50.688877" lon="6.478823">
        <ele>321.698000</ele>
        <time>2009-02-17T22:41:04Z</time>
      </trkpt>
      <trkpt lat="50.688968" lon="6.478821">
        <ele>323.140000</ele>
        <time>2009-02-17T22:41:12Z</time>
      </trkpt>
      <trkpt lat="50.689050" lon="6.478752">
        <ele>324.582000</ele>
        <time>2009-02-17T22:41:20Z</time>
      </trkpt>
      <trkpt lat="50.689118" lon="6.478766">
        <ele>325.063000</ele>
        <time>2009-02-17T22:41:26Z</time>
      </trkpt>
      <trkpt lat="50.689247" lon="6.479396">
        <ele>326.024000</ele>
        <time>2009-02-17T22:42:03Z</time>
      </trkpt>
      <trkpt lat="50.689295" lon="6.479986">
        <ele>326.505000</ele>
        <time>2009-02-17T22:42:36Z</time>
      </trkpt>
      <trkpt lat="50.689310" lon="6.480322">
        <ele>326.024000</ele>
        <time>2009-02-17T22:42:54Z</time>
      </trkpt>
      <trkpt lat="50.689292" lon="6.480486">
        <ele>325.544000</ele>
        <time>2009-02-17T22:43:04Z</time>
      </trkpt>
      <trkpt lat="50.689101" lon="6.481104">
        <ele>325.063000</ele>
        <time>2009-02-17T22:43:42Z</time>
      </trkpt>
      <trkpt lat="50.689074" lon="6.481411">
        <ele>323.621000</ele>
        <time>2009-02-17T22:43:59Z</time>
      </trkpt>
      <trkpt lat="50.689163" lon="6.481494">
        <ele>322.660000</ele>
        <time>2009-02-17T22:44:08Z</time>
      </trkpt>
      <trkpt lat="50.689163" lon="6.481494">
        <ele>322.660000</ele>
        <time>2009-02-17T22:44:08Z</time>
      </trkpt>
      <trkpt lat="50.689364" lon="6.481443">
        <ele>319.776000</ele>
        <time>2009-02-17T22:44:26Z</time>
      </trkpt>
      <trkpt lat="50.689676" lon="6.481636">
        <ele>316.892000</ele>
        <time>2009-02-17T22:44:55Z</time>
      </trkpt>
      <trkpt lat="50.689657" lon="6.481752">
        <ele>317.372000</ele>
        <time>2009-02-17T22:45:02Z</time>
      </trkpt>
      <trkpt lat="50.689190" lon="6.482323">
        <ele>317.372000</ele>
        <time>2009-02-17T22:45:54Z</time>
      </trkpt>
      <trkpt lat="50.688950" lon="6.482618">
        <ele>318.334000</ele>
        <time>2009-02-17T22:46:20Z</time>
      </trkpt>
      <trkpt lat="50.688543" lon="6.483410">
        <ele>319.295000</ele>
        <time>2009-02-17T22:47:17Z</time>
      </trkpt>
      <trkpt lat="50.688465" lon="6.483431">
        <ele>318.334000</ele>
        <time>2009-02-17T22:47:24Z</time>
      </trkpt>
      <trkpt lat="50.688270" lon="6.483306">
        <ele>318.814000</ele>
        <time>2009-02-17T22:47:42Z</time>
      </trkpt>
      <trkpt lat="50.688173" lon="6.483326">
        <ele>317.853000</ele>
        <time>2009-02-17T22:47:51Z</time>
      </trkpt>
      <trkpt lat="50.688028" lon="6.483828">
        <ele>314.969000</ele>
        <time>2009-02-17T22:48:21Z</time>
      </trkpt>
      <trkpt lat="50.687972" lon="6.484171">
        <ele>314.969000</ele>
        <time>2009-02-17T22:48:41Z</time>
      </trkpt>
      <trkpt lat="50.687913" lon="6.484254">
        <ele>315.450000</ele>
        <time>2009-02-17T22:48:48Z</time>
      </trkpt>
      <trkpt lat="50.687867" lon="6.484100">
        <ele>313.527000</ele>
        <time>2009-02-17T22:48:57Z</time>
      </trkpt>
      <trkpt lat="50.687657" lon="6.484014">
        <ele>310.163000</ele>
        <time>2009-02-17T22:49:16Z</time>
      </trkpt>
      <trkpt lat="50.687458" lon="6.483974">
        <ele>306.798000</ele>
        <time>2009-02-17T22:49:34Z</time>
      </trkpt>
      <trkpt lat="50.687387" lon="6.483865">
        <ele>305.837000</ele>
        <time>2009-02-17T22:49:43Z</time>
      </trkpt>
      <trkpt lat="50.687263" lon="6.483456">
        <ele>303.433000</ele>
        <time>2009-02-17T22:50:08Z</time>
      </trkpt>
      <trkpt lat="50.687287" lon="6.483288">
        <ele>301.511000</ele>
        <time>2009-02-17T22:50:17Z</time>
      </trkpt>
      <trkpt lat="50.687396" lon="6.482923">
        <ele>293.339000</ele>
        <time>2009-02-17T22:50:40Z</time>
      </trkpt>
      <trkpt lat="50.687396" lon="6.482714">
        <ele>292.378000</ele>
        <time>2009-02-17T22:50:51Z</time>
      </trkpt>
      <trkpt lat="50.687185" lon="6.481925">
        <ele>296.224000</ele>
        <time>2009-02-17T22:51:39Z</time>
      </trkpt>
      <trkpt lat="50.687074" lon="6.481762">
        <ele>299.107000</ele>
        <time>2009-02-17T22:51:52Z</time>
      </trkpt>
      <trkpt lat="50.686836" lon="6.481824">
        <ele>298.627000</ele>
        <time>2009-02-17T22:52:13Z</time>
      </trkpt>
      <trkpt lat="50.686706" lon="6.481783">
        <ele>298.146000</ele>
        <time>2009-02-17T22:52:25Z</time>
      </trkpt>
      <trkpt lat="50.686384" lon="6.481177">
        <ele>295.262000</ele>
        <time>2009-02-17T22:53:09Z</time>
      </trkpt>
      <trkpt lat="50.686115" lon="6.480499">
        <ele>288.533000</ele>
        <time>2009-02-17T22:53:53Z</time>
      </trkpt>
      <trkpt lat="50.686073" lon="6.480025">
        <ele>284.688000</ele>
        <time>2009-02-17T22:54:20Z</time>
      </trkpt>
      <trkpt lat="50.685921" lon="6.479382">
        <ele>279.400000</ele>
        <time>2009-02-17T22:54:58Z</time>
      </trkpt>
      <trkpt lat="50.685848" lon="6.479229">
        <ele>278.439000</ele>
        <time>2009-02-17T22:55:08Z</time>
      </trkpt>
      <trkpt lat="50.685628" lon="6.479045">
        <ele>280.842000</ele>
        <time>2009-02-17T22:55:30Z</time>
      </trkpt>
      <trkpt lat="50.684995" lon="6.477894">
        <ele>280.842000</ele>
        <time>2009-02-17T22:56:55Z</time>
      </trkpt>
      <trkpt lat="50.684672" lon="6.477511">
        <ele>283.726000</ele>
        <time>2009-02-17T22:57:30Z</time>
      </trkpt>
      <trkpt lat="50.684482" lon="6.477519">
        <ele>287.091000</ele>
        <time>2009-02-17T22:57:47Z</time>
      </trkpt>
      <trkpt lat="50.684430" lon="6.478314">
        <ele>288.533000</ele>
        <time>2009-02-17T22:58:31Z</time>
      </trkpt>
      <trkpt lat="50.684373" lon="6.478547">
        <ele>290.456000</ele>
        <time>2009-02-17T22:58:45Z</time>
      </trkpt>
      <trkpt lat="50.684254" lon="6.478703">
        <ele>289.494000</ele>
        <time>2009-02-17T22:58:58Z</time>
      </trkpt>
      <trkpt lat="50.684168" lon="6.478775">
        <ele>289.494000</ele>
        <time>2009-02-17T22:59:07Z</time>
      </trkpt>
      <trkpt lat="50.683414" lon="6.478582">
        <ele>287.571000</ele>
        <time>2009-02-17T23:00:14Z</time>
      </trkpt>
      <trkpt lat="50.683030" lon="6.479208">
        <ele>290.936000</ele>
        <time>2009-02-17T23:01:02Z</time>
      </trkpt>
      <trkpt lat="50.683005" lon="6.479602">
        <ele>293.339000</ele>
        <time>2009-02-17T23:01:24Z</time>
      </trkpt>
      <trkpt lat="50.683360" lon="6.480434">
        <ele>293.820000</ele>
        <time>2009-02-17T23:02:20Z</time>
      </trkpt>
      <trkpt lat="50.683420" lon="6.480742">
        <ele>293.820000</ele>
        <time>2009-02-17T23:02:38Z</time>
      </trkpt>
      <trkpt lat="50.683269" lon="6.482328">
        <ele>289.494000</ele>
        <time>2009-02-17T23:04:07Z</time>
      </trkpt>
      <trkpt lat="50.683191" lon="6.482209">
        <ele>286.610000</ele>
        <time>2009-02-17T23:04:16Z</time>
      </trkpt>
      <trkpt lat="50.682625" lon="6.480079">
        <ele>265.942000</ele>
        <time>2009-02-17T23:06:24Z</time>
      </trkpt>
      <trkpt lat="50.682495" lon="6.479315">
        <ele>257.771000</ele>
        <time>2009-02-17T23:07:08Z</time>
      </trkpt>
      <trkpt lat="50.682644" lon="6.478359">
        <ele>247.196000</ele>
        <time>2009-02-17T23:08:03Z</time>
      </trkpt>
      <trkpt lat="50.682884" lon="6.477777">
        <ele>237.102000</ele>
        <time>2009-02-17T23:08:41Z</time>
      </trkpt>
      <trkpt lat="50.683269" lon="6.477010">
        <ele>227.970000</ele>
        <time>2009-02-17T23:09:36Z</time>
      </trkpt>
      <trkpt lat="50.684057" lon="6.475174">
        <ele>205.379000</ele>
        <time>2009-02-17T23:11:39Z</time>
      </trkpt>
      <trkpt lat="50.684305" lon="6.474941">
        <ele>203.937000</ele>
        <time>2009-02-17T23:12:04Z</time>
      </trkpt>
      <trkpt lat="50.684276" lon="6.474795">
        <ele>201.534000</ele>
        <time>2009-02-17T23:12:12Z</time>
      </trkpt>
      <trkpt lat="50.684205" lon="6.474687">
        <ele>198.650000</ele>
        <time>2009-02-17T23:12:21Z</time>
      </trkpt>
      <trkpt lat="50.683919" lon="6.474321">
        <ele>203.456000</ele>
        <time>2009-02-17T23:12:53Z</time>
      </trkpt>
      <trkpt lat="50.683651" lon="6.474102">
        <ele>204.898000</ele>
        <time>2009-02-17T23:13:20Z</time>
      </trkpt>
      <trkpt lat="50.683189" lon="6.473646">
        <ele>207.301000</ele>
        <time>2009-02-17T23:14:07Z</time>
      </trkpt>
      <trkpt lat="50.682559" lon="6.473041">
        <ele>202.014000</ele>
        <time>2009-02-17T23:15:12Z</time>
      </trkpt>
      <trkpt lat="50.682363" lon="6.472756">
        <ele>203.456000</ele>
        <time>2009-02-17T23:15:35Z</time>
      </trkpt>
      <trkpt lat="50.682027" lon="6.472681">
        <ele>202.014000</ele>
        <time>2009-02-17T23:16:05Z</time>
      </trkpt>
      <trkpt lat="50.681931" lon="6.472625">
        <ele>202.014000</ele>
        <time>2009-02-17T23:16:14Z</time>
      </trkpt>
      <trkpt lat="50.681662" lon="6.472306">
        <ele>201.534000</ele>
        <time>2009-02-17T23:16:43Z</time>
      </trkpt>
      <trkpt lat="50.679782" lon="6.470342">
        <ele>202.975000</ele>
        <time>2009-02-17T23:20:01Z</time>
      </trkpt>
      <trkpt lat="50.679506" lon="6.470238">
        <ele>201.053000</ele>
        <time>2009-02-17T23:20:26Z</time>
      </trkpt>
      <trkpt lat="50.679128" lon="6.470013">
        <ele>200.092000</ele>
        <time>2009-02-17T23:21:01Z</time>
      </trkpt>
      <trkpt lat="50.678598" lon="6.469944">
        <ele>202.975000</ele>
        <time>2009-02-17T23:21:47Z</time>
      </trkpt>
      <trkpt lat="50.678272" lon="6.469819">
        <ele>201.053000</ele>
        <time>2009-02-17T23:22:17Z</time>
      </trkpt>
      <trkpt lat="50.677550" lon="6.469601">
        <ele>201.534000</ele>
        <time>2009-02-17T23:23:21Z</time>
      </trkpt>
      <trkpt lat="50.676551" lon="6.469315">
        <ele>198.169000</ele>
        <time>2009-02-17T23:24:50Z</time>
      </trkpt>
      <trkpt lat="50.676449" lon="6.469305">
        <ele>197.208000</ele>
        <time>2009-02-17T23:24:59Z</time>
      </trkpt>
      <trkpt lat="50.676332" lon="6.469378">
        <ele>196.727000</ele>
        <time>2009-02-17T23:25:10Z</time>
      </trkpt>
      <trkpt lat="50.676206" lon="6.469694">
        <ele>194.804000</ele>
        <time>2009-02-17T23:25:31Z</time>
      </trkpt>
      <trkpt lat="50.676063" lon="6.470268">
        <ele>192.401000</ele>
        <time>2009-02-17T23:26:05Z</time>
      </trkpt>
      <trkpt lat="50.675859" lon="6.471745">
        <ele>180.865000</ele>
        <time>2009-02-17T23:27:29Z</time>
      </trkpt>
      <trkpt lat="50.675851" lon="6.472102">
        <ele>180.385000</ele>
        <time>2009-02-17T23:27:49Z</time>
      </trkpt>
      <trkpt lat="50.675724" lon="6.473186">
        <ele>179.423000</ele>
        <time>2009-02-17T23:28:50Z</time>
      </trkpt>
      <trkpt lat="50.675650" lon="6.473998">
        <ele>180.865000</ele>
        <time>2009-02-17T23:29:35Z</time>
      </trkpt>
      <trkpt lat="50.675358" lon="6.475287">
        <ele>181.346000</ele>
        <time>2009-02-17T23:30:51Z</time>
      </trkpt>
      <trkpt lat="50.675295" lon="6.475452">
        <ele>181.826000</ele>
        <time>2009-02-17T23:31:02Z</time>
      </trkpt>
      <trkpt lat="50.674947" lon="6.476061">
        <ele>180.385000</ele>
        <time>2009-02-17T23:31:48Z</time>
      </trkpt>
      <trkpt lat="50.674424" lon="6.476804">
        <ele>181.346000</ele>
        <time>2009-02-17T23:32:49Z</time>
      </trkpt>
      <trkpt lat="50.674188" lon="6.477458">
        <ele>182.307000</ele>
        <time>2009-02-17T23:33:31Z</time>
      </trkpt>
      <trkpt lat="50.673852" lon="6.478210">
        <ele>181.826000</ele>
        <time>2009-02-17T23:34:22Z</time>
      </trkpt>
      <trkpt lat="50.673728" lon="6.478324">
        <ele>180.385000</ele>
        <time>2009-02-17T23:34:34Z</time>
      </trkpt>
      <trkpt lat="50.673604" lon="6.478331">
        <ele>178.943000</ele>
        <time>2009-02-17T23:34:45Z</time>
      </trkpt>
      <trkpt lat="50.673500" lon="6.478322">
        <ele>179.423000</ele>
        <time>2009-02-17T23:34:54Z</time>
      </trkpt>
      <trkpt lat="50.673101" lon="6.478150">
        <ele>179.423000</ele>
        <time>2009-02-17T23:35:31Z</time>
      </trkpt>
      <trkpt lat="50.672979" lon="6.478164">
        <ele>181.346000</ele>
        <time>2009-02-17T23:35:41Z</time>
      </trkpt>
      <trkpt lat="50.672464" lon="6.478708">
        <ele>180.865000</ele>
        <time>2009-02-17T23:36:36Z</time>
      </trkpt>
      <trkpt lat="50.672409" lon="6.478802">
        <ele>180.385000</ele>
        <time>2009-02-17T23:36:43Z</time>
      </trkpt>
      <trkpt lat="50.672114" lon="6.479004">
        <ele>182.307000</ele>
        <time>2009-02-17T23:37:11Z</time>
      </trkpt>
      <trkpt lat="50.672026" lon="6.478946">
        <ele>181.826000</ele>
        <time>2009-02-17T23:37:19Z</time>
      </trkpt>
      <trkpt lat="50.671599" lon="6.478337">
        <ele>179.904000</ele>
        <time>2009-02-17T23:38:10Z</time>
      </trkpt>
      <trkpt lat="50.671384" lon="6.478110">
        <ele>180.385000</ele>
        <time>2009-02-17T23:38:32Z</time>
      </trkpt>
      <trkpt lat="50.671177" lon="6.478034">
        <ele>180.385000</ele>
        <time>2009-02-17T23:38:51Z</time>
      </trkpt>
      <trkpt lat="50.670941" lon="6.478050">
        <ele>180.865000</ele>
        <time>2009-02-17T23:39:12Z</time>
      </trkpt>
      <trkpt lat="50.670921" lon="6.477972">
        <ele>182.788000</ele>
        <time>2009-02-17T23:39:16Z</time>
      </trkpt>
      <trkpt lat="50.671143" lon="6.477204">
        <ele>182.788000</ele>
        <time>2009-02-17T23:40:03Z</time>
      </trkpt>
      <trkpt lat="50.671368" lon="6.476931">
        <ele>182.788000</ele>
        <time>2009-02-17T23:40:28Z</time>
      </trkpt>
      <trkpt lat="50.671448" lon="6.476724">
        <ele>182.307000</ele>
        <time>2009-02-17T23:40:41Z</time>
      </trkpt>
      <trkpt lat="50.671462" lon="6.476543">
        <ele>182.788000</ele>
        <time>2009-02-17T23:40:52Z</time>
      </trkpt>
      <trkpt lat="50.671374" lon="6.476445">
        <ele>182.788000</ele>
        <time>2009-02-17T23:41:01Z</time>
      </trkpt>
      <trkpt lat="50.671250" lon="6.476413">
        <ele>182.788000</ele>
        <time>2009-02-17T23:41:12Z</time>
      </trkpt>
      <trkpt lat="50.671126" lon="6.476333">
        <ele>183.268000</ele>
        <time>2009-02-17T23:41:24Z</time>
      </trkpt>
      <trkpt lat="50.671032" lon="6.476207">
        <ele>183.749000</ele>
        <time>2009-02-17T23:41:34Z</time>
      </trkpt>
      <trkpt lat="50.670739" lon="6.475779">
        <ele>184.711000</ele>
        <time>2009-02-17T23:42:09Z</time>
      </trkpt>
      <trkpt lat="50.670558" lon="6.475574">
        <ele>185.672000</ele>
        <time>2009-02-17T23:42:29Z</time>
      </trkpt>
      <trkpt lat="50.670285" lon="6.475096">
        <ele>186.633000</ele>
        <time>2009-02-17T23:43:05Z</time>
      </trkpt>
      <trkpt lat="50.669886" lon="6.474159">
        <ele>189.517000</ele>
        <time>2009-02-17T23:44:07Z</time>
      </trkpt>
      <trkpt lat="50.669258" lon="6.472216">
        <ele>200.092000</ele>
        <time>2009-02-17T23:46:08Z</time>
      </trkpt>
      <trkpt lat="50.668989" lon="6.471369">
        <ele>206.821000</ele>
        <time>2009-02-17T23:47:01Z</time>
      </trkpt>
      <trkpt lat="50.668108" lon="6.469601">
        <ele>222.682000</ele>
        <time>2009-02-17T23:49:06Z</time>
      </trkpt>
      <trkpt lat="50.667888" lon="6.469067">
        <ele>228.450000</ele>
        <time>2009-02-17T23:49:41Z</time>
      </trkpt>
      <trkpt lat="50.667619" lon="6.468110">
        <ele>237.102000</ele>
        <time>2009-02-17T23:50:39Z</time>
      </trkpt>
      <trkpt lat="50.667480" lon="6.467674">
        <ele>244.793000</ele>
        <time>2009-02-17T23:51:06Z</time>
      </trkpt>
      <trkpt lat="50.666959" lon="6.466032">
        <ele>259.693000</ele>
        <time>2009-02-17T23:52:48Z</time>
      </trkpt>
      <trkpt lat="50.666784" lon="6.465632">
        <ele>262.577000</ele>
        <time>2009-02-17T23:53:15Z</time>
      </trkpt>
      <trkpt lat="50.666611" lon="6.465144">
        <ele>265.942000</ele>
        <time>2009-02-17T23:53:46Z</time>
      </trkpt>
      <trkpt lat="50.666532" lon="6.464748">
        <ele>270.268000</ele>
        <time>2009-02-17T23:54:09Z</time>
      </trkpt>
      <trkpt lat="50.664657" lon="6.461971">
        <ele>300.069000</ele>
        <time>2009-02-17T23:57:54Z</time>
      </trkpt>
      <trkpt lat="50.664440" lon="6.461511">
        <ele>302.953000</ele>
        <time>2009-02-17T23:58:26Z</time>
      </trkpt>
      <trkpt lat="50.664029" lon="6.460451">
        <ele>313.047000</ele>
        <time>2009-02-17T23:59:35Z</time>
      </trkpt>
      <trkpt lat="50.663710" lon="6.459632">
        <ele>321.218000</ele>
        <time>2009-02-18T00:00:28Z</time>
      </trkpt>
      <trkpt lat="50.663359" lon="6.457632">
        <ele>335.637000</ele>
        <time>2009-02-18T00:02:24Z</time>
      </trkpt>
      <trkpt lat="50.663079" lon="6.455633">
        <ele>356.306000</ele>
        <time>2009-02-18T00:04:17Z</time>
      </trkpt>
      <trkpt lat="50.663079" lon="6.455197">
        <ele>359.670000</ele>
        <time>2009-02-18T00:04:41Z</time>
      </trkpt>
      <trkpt lat="50.662943" lon="6.454333">
        <ele>365.438000</ele>
        <time>2009-02-18T00:05:31Z</time>
      </trkpt>
      <trkpt lat="50.662749" lon="6.453242">
        <ele>372.648000</ele>
        <time>2009-02-18T00:06:34Z</time>
      </trkpt>
      <trkpt lat="50.662550" lon="6.452781">
        <ele>375.532000</ele>
        <time>2009-02-18T00:07:05Z</time>
      </trkpt>
      <trkpt lat="50.661626" lon="6.450869">
        <ele>381.781000</ele>
        <time>2009-02-18T00:09:18Z</time>
      </trkpt>
      <trkpt lat="50.661220" lon="6.450225">
        <ele>383.703000</ele>
        <time>2009-02-18T00:10:08Z</time>
      </trkpt>
      <trkpt lat="50.660882" lon="6.449299">
        <ele>384.665000</ele>
        <time>2009-02-18T00:11:08Z</time>
      </trkpt>
      <trkpt lat="50.660545" lon="6.448392">
        <ele>385.145000</ele>
        <time>2009-02-18T00:12:06Z</time>
      </trkpt>
      <trkpt lat="50.660464" lon="6.448302">
        <ele>385.626000</ele>
        <time>2009-02-18T00:12:15Z</time>
      </trkpt>
      <trkpt lat="50.659496" lon="6.447841">
        <ele>384.184000</ele>
        <time>2009-02-18T00:13:43Z</time>
      </trkpt>
      <trkpt lat="50.657986" lon="6.447001">
        <ele>383.703000</ele>
        <time>2009-02-18T00:16:04Z</time>
      </trkpt>
      <trkpt lat="50.657520" lon="6.446742">
        <ele>380.819000</ele>
        <time>2009-02-18T00:16:47Z</time>
      </trkpt>
      <trkpt lat="50.657363" lon="6.446387">
        <ele>381.300000</ele>
        <time>2009-02-18T00:17:11Z</time>
      </trkpt>
      <trkpt lat="50.657225" lon="6.445762">
        <ele>384.665000</ele>
        <time>2009-02-18T00:17:48Z</time>
      </trkpt>
      <trkpt lat="50.656812" lon="6.443920">
        <ele>386.107000</ele>
        <time>2009-02-18T00:19:36Z</time>
      </trkpt>
      <trkpt lat="50.656452" lon="6.442454">
        <ele>387.068000</ele>
        <time>2009-02-18T00:21:03Z</time>
      </trkpt>
      <trkpt lat="50.656024" lon="6.441710">
        <ele>388.029000</ele>
        <time>2009-02-18T00:21:59Z</time>
      </trkpt>
      <trkpt lat="50.655917" lon="6.441436">
        <ele>388.991000</ele>
        <time>2009-02-18T00:22:17Z</time>
      </trkpt>
      <trkpt lat="50.655978" lon="6.434431">
        <ele>395.239000</ele>
        <time>2009-02-18T00:28:46Z</time>
      </trkpt>
      <trkpt lat="50.656106" lon="6.433930">
        <ele>397.162000</ele>
        <time>2009-02-18T00:29:16Z</time>
      </trkpt>
      <trkpt lat="50.656489" lon="6.433295">
        <ele>396.681000</ele>
        <time>2009-02-18T00:30:04Z</time>
      </trkpt>
      <trkpt lat="50.657157" lon="6.432065">
        <ele>400.526000</ele>
        <time>2009-02-18T00:31:34Z</time>
      </trkpt>
      <trkpt lat="50.657201" lon="6.431684">
        <ele>401.488000</ele>
        <time>2009-02-18T00:31:56Z</time>
      </trkpt>
      <trkpt lat="50.657281" lon="6.428754">
        <ele>404.372000</ele>
        <time>2009-02-18T00:34:39Z</time>
      </trkpt>
      <trkpt lat="50.657214" lon="6.428375">
        <ele>403.410000</ele>
        <time>2009-02-18T00:35:00Z</time>
      </trkpt>
      <trkpt lat="50.656504" lon="6.425943">
        <ele>406.294000</ele>
        <time>2009-02-18T00:37:29Z</time>
      </trkpt>
      <trkpt lat="50.656431" lon="6.425422">
        <ele>407.256000</ele>
        <time>2009-02-18T00:37:59Z</time>
      </trkpt>
      <trkpt lat="50.656555" lon="6.423930">
        <ele>405.333000</ele>
        <time>2009-02-18T00:39:22Z</time>
      </trkpt>
      <trkpt lat="50.657433" lon="6.418189">
        <ele>419.753000</ele>
        <time>2009-02-18T00:44:50Z</time>
      </trkpt>
      <trkpt lat="50.657991" lon="6.416397">
        <ele>418.792000</ele>
        <time>2009-02-18T00:46:41Z</time>
      </trkpt>
      <trkpt lat="50.657341" lon="6.415901">
        <ele>423.598000</ele>
        <time>2009-02-18T00:47:44Z</time>
      </trkpt>
      <trkpt lat="50.656857" lon="6.415478">
        <ele>426.963000</ele>
        <time>2009-02-18T00:48:32Z</time>
      </trkpt>
      <trkpt lat="50.656363" lon="6.415106">
        <ele>429.366000</ele>
        <time>2009-02-18T00:49:20Z</time>
      </trkpt>
      <trkpt lat="50.656379" lon="6.414941">
        <ele>429.847000</ele>
        <time>2009-02-18T00:49:30Z</time>
      </trkpt>
      <trkpt lat="50.656378" lon="6.414942">
        <ele>0.000000</ele>
        <time>2009-02-18T00:49:30Z</time>
      </trkpt>
      <trkpt lat="50.656637" lon="6.413944">
        <ele>0.000000</ele>
        <time>2009-02-18T00:50:29Z</time>
      </trkpt>
    </trkseg>
  </trk>

</gpx>
